Time;durP1;ratioP1;P1;durP2;ratioP2;P2;SDS_P1;SDS_P2;PMS_P1;PMS_P2;Temp;Humidity;BMP_temperature;BMP_pressure;BME280_temperature;BME280_humidity;BME280_pressure;Samples;Min_cycle;Max_cycle;Signal;HPM_P1;HPM_P2
2024/03/09 00:00:40;;;;;;;30.40;18.33;;;3.20;99.90;;;;;;5010105;28;21118;-61
2024/03/09 00:03:10;;;;;;;32.27;19.10;;;3.10;99.90;;;;;;5009475;28;20416;-65
2024/03/09 00:05:38;;;;;;;31.43;19.10;;;3.10;99.90;;;;;;5008377;28;20478;-63
2024/03/09 00:08:07;;;;;;;36.03;18.90;;;3.10;99.90;;;;;;5008574;28;20786;-63
2024/03/09 00:10:33;;;;;;;25.00;16.40;;;3.10;99.90;;;;;;5010514;28;20426;-62
2024/03/09 00:12:59;;;;;;;30.60;18.10;;;3.00;99.90;;;;;;5010959;28;20455;-61
2024/03/09 00:15:26;;;;;;;35.73;19.50;;;3.10;99.90;;;;;;5008825;28;20486;-63
2024/03/09 00:17:53;;;;;;;24.70;18.60;;;3.00;99.90;;;;;;5009879;28;20427;-60
2024/03/09 00:20:24;;;;;;;28.83;17.40;;;3.00;99.90;;;;;;5009867;28;20415;-61
2024/03/09 00:22:55;;;;;;;32.50;20.73;;;2.90;99.90;;;;;;5009568;28;20466;-61
2024/03/09 00:25:22;;;;;;;29.30;18.67;;;3.00;99.90;;;;;;5009190;28;20454;-62
2024/03/09 00:27:48;;;;;;;29.57;21.77;;;2.90;99.90;;;;;;5008232;28;20894;-61
2024/03/09 00:30:22;;;;;;;32.10;20.43;;;2.90;99.90;;;;;;5009528;28;20408;-64
2024/03/09 00:32:48;;;;;;;33.33;19.83;;;2.90;99.90;;;;;;5008215;28;20430;-61
2024/03/09 00:35:14;;;;;;;30.07;20.47;;;2.90;99.90;;;;;;5010489;28;20471;-63
2024/03/09 00:37:41;;;;;;;31.40;20.20;;;2.90;99.90;;;;;;5009119;28;20459;-60
2024/03/09 00:40:08;;;;;;;37.03;21.60;;;2.90;99.90;;;;;;5008508;28;20506;-64
2024/03/09 00:42:35;;;;;;;29.73;21.47;;;2.80;99.90;;;;;;5010198;28;20435;-60
2024/03/09 00:45:02;;;;;;;35.30;20.93;;;2.80;99.90;;;;;;5008337;28;20497;-63
2024/03/09 00:47:28;;;;;;;31.23;22.37;;;2.80;99.90;;;;;;5008341;28;20529;-64
2024/03/09 00:49:55;;;;;;;34.30;19.90;;;2.80;99.90;;;;;;5008982;28;20517;-62
2024/03/09 00:52:25;;;;;;;31.07;20.17;;;2.80;99.90;;;;;;5015083;28;20196;-62
2024/03/09 00:54:54;;;;;;;32.67;20.60;;;2.80;99.90;;;;;;5012658;28;20427;-63
2024/03/09 00:57:20;;;;;;;33.50;20.73;;;2.70;99.90;;;;;;5007322;28;20423;-61
2024/03/09 00:59:47;;;;;;;38.10;22.03;;;2.80;99.90;;;;;;5013849;28;20415;-60
2024/03/09 01:02:13;;;;;;;30.50;20.20;;;2.70;99.90;;;;;;5013868;28;20433;-62
2024/03/09 01:04:39;;;;;;;37.97;21.97;;;2.70;99.90;;;;;;5012435;28;20497;-64
2024/03/09 01:07:05;;;;;;;32.87;20.47;;;2.70;99.90;;;;;;5012234;28;20494;-63
2024/03/09 01:09:31;;;;;;;34.23;22.33;;;2.70;99.90;;;;;;5012419;28;20176;-63
2024/03/09 01:11:56;;;;;;;40.03;22.40;;;2.70;99.90;;;;;;5012797;28;20651;-61
2024/03/09 01:14:25;;;;;;;37.00;23.70;;;2.70;99.90;;;;;;5012048;28;20674;-63
2024/03/09 01:16:51;;;;;;;34.50;21.53;;;2.60;99.90;;;;;;5013546;28;20168;-63
2024/03/09 01:19:18;;;;;;;32.70;22.80;;;2.60;99.90;;;;;;5013624;28;20415;-63
2024/03/09 01:21:46;;;;;;;36.40;21.17;;;2.60;99.90;;;;;;5010301;28;20181;-62
2024/03/09 01:24:12;;;;;;;39.90;22.70;;;2.60;99.90;;;;;;5012044;28;20486;-62
2024/03/09 01:26:37;;;;;;;46.90;26.03;;;2.60;99.90;;;;;;5012843;28;20523;-63
2024/03/09 01:29:03;;;;;;;33.93;21.20;;;2.60;99.90;;;;;;5012985;28;20423;-64
2024/03/09 01:31:29;;;;;;;35.37;20.67;;;2.60;99.90;;;;;;5012874;28;20239;-63
2024/03/09 01:33:55;;;;;;;40.27;22.90;;;2.60;99.90;;;;;;5012813;28;20518;-61
2024/03/09 01:36:23;;;;;;;35.30;22.37;;;2.60;99.90;;;;;;5010242;28;21456;-61
2024/03/09 01:38:49;;;;;;;41.17;25.60;;;2.60;99.90;;;;;;5012812;28;20510;-62
2024/03/09 01:41:15;;;;;;;36.30;22.00;;;2.60;99.90;;;;;;5012681;28;20494;-62
2024/03/09 01:43:41;;;;;;;40.00;22.73;;;2.50;99.90;;;;;;5012838;28;20642;-62
2024/03/09 01:46:09;;;;;;;41.77;23.30;;;2.50;99.90;;;;;;5009756;28;20554;-61
2024/03/09 01:48:39;;;;;;;37.83;24.20;;;2.50;99.90;;;;;;5013045;28;20172;-62
2024/03/09 01:51:05;;;;;;;38.93;22.67;;;2.40;99.90;;;;;;5012919;28;20902;-63
2024/03/09 01:53:31;;;;;;;33.83;20.97;;;2.50;99.90;;;;;;5012840;28;20419;-62
2024/03/09 01:55:59;;;;;;;37.20;23.27;;;2.40;99.90;;;;;;5012715;28;20439;-62
2024/03/09 01:58:29;;;;;;;43.50;23.23;;;2.40;99.90;;;;;;5013086;28;20504;-62
2024/03/09 02:01:04;;;;;;;37.10;21.40;;;2.40;99.90;;;;;;5012671;28;20415;-62
2024/03/09 02:03:31;;;;;;;37.27;22.37;;;2.40;99.90;;;;;;5008658;28;20410;-62
2024/03/09 02:05:59;;;;;;;34.07;24.27;;;2.30;99.90;;;;;;4994925;28;20446;-62
2024/03/09 02:08:30;;;;;;;38.47;24.03;;;2.30;99.90;;;;;;5012485;28;20422;-62
2024/03/09 02:10:56;;;;;;;41.90;24.87;;;2.30;99.90;;;;;;5012297;28;20920;-62
2024/03/09 02:13:27;;;;;;;38.37;25.40;;;2.30;99.90;;;;;;5012407;28;20407;-62
2024/03/09 02:15:53;;;;;;;44.27;25.53;;;2.30;99.90;;;;;;5009833;28;20564;-62
2024/03/09 02:18:23;;;;;;;37.97;23.63;;;2.30;99.90;;;;;;5010017;28;20424;-63
2024/03/09 02:20:50;;;;;;;30.87;21.87;;;2.20;99.90;;;;;;5012421;28;20415;-63
2024/03/09 02:23:19;;;;;;;36.30;23.23;;;2.30;99.90;;;;;;5009664;28;20416;-63
2024/03/09 02:25:48;;;;;;;40.63;23.20;;;2.20;99.90;;;;;;5012024;28;20570;-62
2024/03/09 02:28:20;;;;;;;40.00;22.53;;;2.20;99.90;;;;;;5011625;28;20536;-63
2024/03/09 02:30:48;;;;;;;35.57;22.73;;;2.20;99.90;;;;;;5012094;28;20486;-63
2024/03/09 02:33:18;;;;;;;41.60;24.77;;;2.20;99.90;;;;;;5011483;28;20407;-62
2024/03/09 02:35:47;;;;;;;39.70;23.90;;;2.30;99.90;;;;;;5013451;28;20431;-62
2024/03/09 02:38:15;;;;;;;37.73;25.77;;;2.30;99.90;;;;;;5012015;28;20427;-62
2024/03/09 02:40:43;;;;;;;42.20;26.70;;;2.20;99.90;;;;;;5012608;28;20469;-63
2024/03/09 02:43:11;;;;;;;41.83;26.83;;;2.20;99.90;;;;;;5012216;28;20897;-63
2024/03/09 02:45:39;;;;;;;38.77;24.77;;;2.30;99.90;;;;;;5011732;28;20465;-63
2024/03/09 02:48:07;;;;;;;42.07;26.20;;;2.20;99.90;;;;;;5011846;28;20419;-63
2024/03/09 02:50:35;;;;;;;38.97;24.97;;;2.20;99.90;;;;;;5012093;28;20443;-63
2024/03/09 02:53:04;;;;;;;42.13;25.60;;;2.20;99.90;;;;;;5011620;28;20473;-63
2024/03/09 02:55:49;;;;;;;43.70;27.00;;;2.20;99.90;;;;;;5011498;28;20439;-62
2024/03/09 02:58:16;;;;;;;43.23;26.60;;;2.20;99.90;;;;;;5011526;28;20407;-63
2024/03/09 03:00:47;;;;;;;55.77;27.80;;;2.20;99.90;;;;;;5009616;28;20454;-63
2024/03/09 03:05:57;;;;;;;36.73;23.80;;;2.10;99.90;;;;;;5010318;28;20466;-63
2024/03/09 03:08:23;;;;;;;46.07;24.87;;;2.10;99.90;;;;;;5012041;28;20416;-64
2024/03/09 03:10:51;;;;;;;49.80;29.43;;;2.10;99.90;;;;;;5011641;28;20179;-62
2024/03/09 03:13:19;;;;;;;41.03;27.03;;;2.10;99.90;;;;;;5011585;28;20495;-62
2024/03/09 03:15:45;;;;;;;40.23;24.50;;;2.00;99.90;;;;;;5011595;28;20969;-62
2024/03/09 03:18:14;;;;;;;39.80;24.70;;;2.00;99.90;;;;;;5011140;28;20465;-61
2024/03/09 03:20:39;;;;;;;45.10;27.17;;;2.00;99.90;;;;;;5011160;28;20543;-61
2024/03/09 03:23:06;;;;;;;44.33;25.50;;;2.00;99.90;;;;;;5010820;28;20404;-62
2024/03/09 03:25:32;;;;;;;42.03;26.53;;;2.00;99.90;;;;;;5010893;28;20634;-62
2024/03/09 03:28:00;;;;;;;47.20;28.10;;;2.00;99.90;;;;;;5011248;28;20442;-62
2024/03/09 03:30:26;;;;;;;42.40;25.10;;;2.00;99.90;;;;;;5009926;28;20168;-63
2024/03/09 03:33:00;;;;;;;39.00;22.00;;;1.90;99.90;;;;;;5010612;28;20427;-61
2024/03/09 03:35:26;;;;;;;43.83;25.60;;;1.90;99.90;;;;;;5010195;28;20455;-62
2024/03/09 03:37:54;;;;;;;40.47;26.63;;;1.90;99.90;;;;;;5008716;28;20435;-62
2024/03/09 03:40:25;;;;;;;41.13;24.70;;;1.80;99.90;;;;;;5009644;28;20426;-62
2024/03/09 03:42:51;;;;;;;45.50;25.37;;;1.80;99.90;;;;;;5009513;28;20517;-62
2024/03/09 03:45:23;;;;;;;56.60;28.30;;;1.80;99.90;;;;;;5008749;28;20546;-62
2024/03/09 03:47:52;;;;;;;39.27;24.53;;;1.80;99.90;;;;;;5009486;28;20172;-62
2024/03/09 03:50:38;;;;;;;42.13;27.33;;;1.80;99.90;;;;;;5008864;28;20427;-62
2024/03/09 03:53:04;;;;;;;47.10;26.80;;;1.70;99.90;;;;;;5008932;28;20419;-62
2024/03/09 03:55:32;;;;;;;42.10;26.13;;;1.80;99.90;;;;;;5010113;28;20463;-62
2024/03/09 03:58:02;;;;;;;39.90;24.90;;;1.70;99.90;;;;;;5009349;28;20814;-62
2024/03/09 04:00:32;;;;;;;38.50;24.10;;;1.80;99.90;;;;;;5005549;28;20478;-61
2024/03/09 04:03:02;;;;;;;45.07;27.27;;;1.70;99.90;;;;;;5007734;28;20437;-62
2024/03/09 04:05:29;;;;;;;46.90;26.87;;;1.70;99.90;;;;;;5010021;28;20485;-62
2024/03/09 04:07:56;;;;;;;39.40;24.17;;;1.70;99.90;;;;;;5009990;28;20431;-62
2024/03/09 04:10:28;;;;;;;39.73;25.70;;;1.70;99.90;;;;;;5007964;28;20442;-61
2024/03/09 04:12:56;;;;;;;43.30;24.87;;;1.60;99.90;;;;;;5008517;28;20443;-62
2024/03/09 04:15:26;;;;;;;48.90;29.70;;;1.70;99.90;;;;;;5005689;28;20751;-61
2024/03/09 04:17:55;;;;;;;43.13;27.40;;;1.60;99.90;;;;;;5010024;28;20501;-61
2024/03/09 04:20:26;;;;;;;57.40;30.50;;;1.60;99.90;;;;;;5008875;28;20434;-62
2024/03/09 04:22:52;;;;;;;43.90;25.80;;;1.60;99.90;;;;;;5005836;28;20489;-62
2024/03/09 04:25:19;;;;;;;47.27;30.37;;;1.60;99.90;;;;;;5009390;28;20470;-62
2024/03/09 04:27:47;;;;;;;43.77;24.93;;;1.60;99.90;;;;;;5013803;28;20795;-62
2024/03/09 04:30:16;;;;;;;50.87;28.67;;;1.60;99.90;;;;;;5012075;28;21038;-62
2024/03/09 04:32:48;;;;;;;43.07;25.47;;;1.60;99.90;;;;;;5013654;28;20871;-63
2024/03/09 04:35:13;;;;;;;50.37;29.27;;;1.60;99.90;;;;;;5013582;28;20446;-63
2024/03/09 04:37:44;;;;;;;47.57;28.53;;;1.60;99.90;;;;;;5014691;28;20470;-62
2024/03/09 04:40:20;;;;;;;50.70;25.37;;;1.60;99.90;;;;;;5013496;28;20435;-62
2024/03/09 04:42:46;;;;;;;47.10;28.50;;;1.50;99.90;;;;;;5012239;28;20543;-62
2024/03/09 16:39:22;;;;;;;19.53;14.63;;;9.70;99.90;;;;;;3342987;26;20471;-65
2024/03/09 16:41:48;;;;;;;24.27;15.17;;;9.70;99.90;;;;;;5014339;28;20458;-64
2024/03/09 16:44:14;;;;;;;26.23;17.20;;;9.70;99.90;;;;;;5012506;28;21063;-64
2024/03/09 16:46:40;;;;;;;21.67;15.23;;;9.70;99.90;;;;;;5007376;28;20465;-64
2024/03/09 16:49:08;;;;;;;20.13;15.73;;;9.70;99.90;;;;;;5031261;22;21008;-57
2024/03/09 16:51:33;;;;;;;30.30;17.30;;;9.70;99.90;;;;;;5014591;28;20426;-52
2024/03/09 16:53:59;;;;;;;21.90;15.03;;;9.70;99.90;;;;;;5014175;28;20423;-56
2024/03/09 16:56:28;;;;;;;24.23;15.07;;;9.70;99.90;;;;;;5014512;28;20192;-56
2024/03/09 16:58:55;;;;;;;22.13;14.67;;;9.70;99.90;;;;;;5020635;28;20207;-56
2024/03/09 17:01:23;;;;;;;21.30;16.07;;;9.60;99.90;;;;;;5014428;28;20438;-58
2024/03/09 17:03:50;;;;;;;25.77;15.40;;;9.60;99.90;;;;;;5013001;28;20435;-63
2024/03/09 17:06:16;;;;;;;22.30;15.43;;;9.60;99.90;;;;;;5014037;28;21026;-57
2024/03/09 17:08:43;;;;;;;18.87;14.10;;;9.60;99.90;;;;;;5014169;28;20486;-52
2024/03/09 17:11:09;;;;;;;23.13;16.20;;;9.60;99.90;;;;;;5014511;28;20179;-54
2024/03/09 17:13:35;;;;;;;37.67;23.53;;;9.60;99.90;;;;;;5013668;28;20415;-56
2024/03/09 17:16:01;;;;;;;23.53;17.63;;;9.80;99.90;;;;;;5013868;28;20226;-56
2024/03/09 17:18:27;;;;;;;24.33;16.07;;;9.70;99.90;;;;;;5013918;28;20582;-54
2024/03/09 17:20:54;;;;;;;24.80;16.07;;;9.70;99.90;;;;;;5014377;28;20419;-55
2024/03/09 17:23:20;;;;;;;20.80;15.73;;;9.60;99.90;;;;;;5013975;28;20422;-53
2024/03/09 17:25:47;;;;;;;22.30;15.30;;;9.50;99.90;;;;;;5013869;28;20434;-55
2024/03/09 17:28:19;;;;;;;21.93;16.03;;;9.50;99.90;;;;;;5013569;28;20440;-57
2024/03/09 17:30:46;;;;;;;24.07;16.63;;;9.50;99.90;;;;;;5013335;28;20808;-58
2024/03/09 17:33:15;;;;;;;20.87;16.87;;;9.50;99.90;;;;;;5013889;28;20415;-54
2024/03/09 17:35:41;;;;;;;21.53;15.23;;;9.50;99.90;;;;;;5013739;28;20424;-57
2024/03/09 17:38:08;;;;;;;20.87;15.80;;;9.40;99.90;;;;;;5014001;28;20427;-57
2024/03/09 17:40:36;;;;;;;22.80;14.80;;;9.40;99.90;;;;;;5012948;28;20445;-52
2024/03/09 17:43:02;;;;;;;19.87;14.80;;;9.40;99.90;;;;;;5012577;28;20430;-58
2024/03/09 17:45:28;;;;;;;20.67;14.13;;;9.30;99.90;;;;;;4995464;28;20437;-55
2024/03/09 17:47:54;;;;;;;18.27;14.70;;;9.30;99.90;;;;;;5013197;28;20454;-54
2024/03/09 17:50:25;;;;;;;18.73;12.87;;;9.30;99.90;;;;;;5013277;28;20874;-57
2024/03/09 17:52:54;;;;;;;22.23;15.23;;;9.40;99.90;;;;;;5013514;28;20454;-56
2024/03/09 17:55:20;;;;;;;19.03;13.40;;;9.30;99.90;;;;;;5013466;28;20526;-53
2024/03/09 17:57:49;;;;;;;18.50;13.30;;;9.30;99.90;;;;;;5013167;28;20539;-54
2024/03/09 18:00:23;;;;;;;20.60;13.37;;;9.30;99.90;;;;;;5012832;28;20678;-59
2024/03/09 18:02:52;;;;;;;18.77;14.37;;;9.30;99.90;;;;;;5013369;28;20983;-57
2024/03/09 18:05:23;;;;;;;20.80;14.23;;;9.20;99.90;;;;;;5013726;28;20442;-54
2024/03/09 18:07:53;;;;;;;21.83;13.77;;;9.20;99.90;;;;;;5013174;28;20550;-54
2024/03/09 18:10:19;;;;;;;21.23;13.87;;;9.20;99.90;;;;;;5013319;28;20538;-56
2024/03/09 18:12:45;;;;;;;23.67;15.00;;;9.20;99.90;;;;;;5013903;28;20933;-59
2024/03/09 18:15:11;;;;;;;16.57;12.87;;;9.20;99.90;;;;;;5013662;28;20454;-54
2024/03/09 18:17:37;;;;;;;18.60;14.10;;;9.10;99.90;;;;;;5013231;28;20187;-55
2024/03/09 18:20:05;;;;;;;22.43;14.80;;;9.20;99.90;;;;;;5012976;28;20683;-55
2024/03/09 18:22:33;;;;;;;20.70;14.77;;;9.10;99.90;;;;;;5012857;28;20180;-55
2024/03/09 18:24:58;;;;;;;21.77;14.67;;;9.10;99.90;;;;;;5012345;28;20803;-56
2024/03/09 18:27:24;;;;;;;19.63;14.83;;;9.10;99.90;;;;;;5012873;28;20459;-57
2024/03/09 18:29:50;;;;;;;19.00;15.07;;;9.10;99.90;;;;;;5012219;28;20612;-57
2024/03/09 18:32:16;;;;;;;22.03;15.77;;;9.20;99.90;;;;;;5012280;28;20454;-61
2024/03/09 18:34:42;;;;;;;19.03;13.37;;;9.10;99.90;;;;;;5012767;28;20317;-57
2024/03/09 18:37:07;;;;;;;20.90;15.90;;;9.20;99.90;;;;;;5012370;28;20194;-58
2024/03/09 18:39:33;;;;;;;20.97;14.77;;;9.20;99.90;;;;;;5012917;28;20714;-61
2024/03/09 18:41:59;;;;;;;21.93;15.63;;;9.10;99.90;;;;;;5013045;28;20187;-62
2024/03/09 18:44:24;;;;;;;20.20;15.83;;;9.10;99.90;;;;;;5012299;28;20180;-62
2024/03/09 18:46:53;;;;;;;19.80;15.30;;;9.20;99.90;;;;;;5011772;28;20236;-58
2024/03/09 18:49:21;;;;;;;18.77;14.97;;;9.10;99.90;;;;;;5013246;28;20200;-56
2024/03/09 18:51:47;;;;;;;21.93;14.80;;;9.20;99.90;;;;;;5012015;28;20513;-58
2024/03/09 18:54:13;;;;;;;18.87;14.60;;;9.20;99.90;;;;;;5012417;28;20477;-59
2024/03/09 18:56:38;;;;;;;17.80;13.70;;;9.20;99.90;;;;;;5011794;28;21003;-56
2024/03/09 18:59:06;;;;;;;19.77;15.07;;;9.20;99.90;;;;;;5011636;28;20203;-60
2024/03/09 19:01:32;;;;;;;19.03;13.40;;;9.20;99.90;;;;;;5012355;28;20188;-63
2024/03/09 19:03:58;;;;;;;17.57;14.37;;;9.20;99.90;;;;;;5011532;28;20478;-56
2024/03/09 19:06:27;;;;;;;15.80;13.77;;;9.10;99.90;;;;;;5012192;28;20467;-53
2024/03/09 19:08:53;;;;;;;21.23;15.93;;;9.10;99.90;;;;;;4994196;28;20207;-54
2024/03/09 19:11:19;;;;;;;20.83;14.10;;;9.10;99.90;;;;;;5012078;28;20917;-65
2024/03/09 19:13:48;;;;;;;19.80;15.13;;;9.10;99.90;;;;;;5012223;28;20430;-57
2024/03/09 19:16:16;;;;;;;23.20;15.60;;;9.10;99.90;;;;;;5003636;28;20505;-57
2024/03/09 19:18:42;;;;;;;22.47;15.70;;;9.10;99.90;;;;;;5011507;28;20513;-56
2024/03/09 19:21:09;;;;;;;22.37;17.10;;;9.10;99.90;;;;;;5011782;28;20426;-59
2024/03/09 19:23:35;;;;;;;22.73;15.67;;;9.10;99.90;;;;;;5011417;28;20556;-59
2024/03/09 19:26:03;;;;;;;21.93;15.00;;;9.10;99.90;;;;;;5011665;28;20463;-56
2024/03/09 19:28:29;;;;;;;21.20;16.10;;;9.10;99.90;;;;;;5012150;28;20446;-56
2024/03/09 19:30:55;;;;;;;22.27;16.10;;;9.10;99.90;;;;;;5011568;28;21004;-57
2024/03/09 19:33:21;;;;;;;21.40;15.63;;;9.00;99.90;;;;;;5011291;28;20665;-57
2024/03/09 19:35:47;;;;;;;24.10;16.37;;;9.10;99.90;;;;;;5011794;28;20182;-55
2024/03/09 19:38:16;;;;;;;21.20;15.33;;;9.10;99.90;;;;;;5011193;28;21147;-55
2024/03/09 19:40:42;;;;;;;23.63;16.67;;;9.00;99.90;;;;;;5011753;28;20418;-57
2024/03/09 19:43:08;;;;;;;26.90;15.70;;;9.00;99.90;;;;;;5011178;28;20495;-53
2024/03/09 19:45:34;;;;;;;22.27;15.83;;;9.00;99.90;;;;;;5011260;28;20490;-56
2024/03/09 19:48:01;;;;;;;18.10;14.83;;;9.00;99.90;;;;;;5011267;28;20668;-56
2024/03/09 19:50:28;;;;;;;19.77;15.73;;;8.90;99.90;;;;;;5011528;28;20453;-55
2024/03/09 19:52:54;;;;;;;20.50;16.43;;;8.80;99.90;;;;;;5011457;28;20427;-56
2024/03/09 19:55:23;;;;;;;25.03;16.30;;;8.80;99.90;;;;;;5011399;28;20501;-57
2024/03/09 19:57:49;;;;;;;28.10;15.30;;;8.70;99.90;;;;;;5014299;28;20214;-57
2024/03/09 20:00:28;;;;;;;21.23;14.70;;;8.60;99.90;;;;;;5014893;28;20447;-57
2024/03/09 20:02:56;;;;;;;21.53;15.83;;;8.50;99.90;;;;;;5015110;28;20419;-57
2024/03/09 20:05:24;;;;;;;22.73;15.87;;;8.50;99.90;;;;;;5016227;28;20434;-57
2024/03/09 20:07:53;;;;;;;23.80;15.67;;;8.40;99.90;;;;;;5015358;28;20473;-57
2024/03/09 20:10:25;;;;;;;24.50;16.07;;;8.30;99.90;;;;;;5007505;28;20441;-55
2024/03/09 20:12:53;;;;;;;22.60;17.27;;;8.30;99.90;;;;;;5015454;28;20411;-54
2024/03/09 20:15:19;;;;;;;22.83;17.00;;;8.20;99.90;;;;;;5015020;28;20419;-55
2024/03/09 20:17:54;;;;;;;28.10;17.50;;;8.20;99.90;;;;;;5015383;28;20512;-53
2024/03/09 20:20:20;;;;;;;26.13;16.77;;;8.10;99.90;;;;;;5015315;28;21019;-54
2024/03/09 20:22:57;;;;;;;23.77;17.33;;;8.10;99.90;;;;;;5015129;28;20428;-55
2024/03/09 20:25:23;;;;;;;20.10;15.83;;;8.10;99.90;;;;;;5007810;28;20425;-56
2024/03/09 20:27:50;;;;;;;27.90;17.13;;;8.10;99.90;;;;;;5015287;28;20894;-57
2024/03/09 20:30:19;;;;;;;22.83;16.23;;;8.10;99.90;;;;;;5014722;28;20228;-53
2024/03/09 20:32:46;;;;;;;24.90;17.53;;;8.00;99.90;;;;;;5015240;28;20422;-57
2024/03/09 20:35:15;;;;;;;18.63;16.50;;;8.00;99.90;;;;;;5015014;28;21002;-51
2024/03/09 20:37:46;;;;;;;18.97;16.23;;;8.00;99.90;;;;;;5015114;28;20419;-53
2024/03/09 20:40:15;;;;;;;23.20;18.07;;;7.90;99.90;;;;;;5014596;28;20829;-56
2024/03/09 20:42:43;;;;;;;23.60;17.00;;;7.90;99.90;;;;;;5014861;28;20951;-55
2024/03/09 20:45:10;;;;;;;21.20;17.03;;;7.90;99.90;;;;;;5014114;28;20524;-54
2024/03/09 20:47:36;;;;;;;24.60;18.47;;;7.80;99.90;;;;;;5014947;28;20610;-53
2024/03/09 20:50:06;;;;;;;25.57;18.00;;;7.90;99.90;;;;;;5014728;28;21031;-54
2024/03/09 20:52:32;;;;;;;24.50;18.67;;;7.80;99.90;;;;;;5014814;28;20504;-54
2024/03/09 20:54:58;;;;;;;25.73;17.27;;;7.80;99.90;;;;;;5014004;28;20418;-56
2024/03/09 20:57:24;;;;;;;24.93;16.23;;;7.70;99.90;;;;;;5014542;28;20419;-55
2024/03/09 20:59:50;;;;;;;23.27;19.33;;;7.70;99.90;;;;;;5014436;28;20214;-56
2024/03/09 21:02:17;;;;;;;22.80;15.10;;;7.80;99.90;;;;;;5014120;28;20185;-54
2024/03/09 21:04:46;;;;;;;22.57;16.37;;;7.80;99.90;;;;;;5014493;28;20833;-56
2024/03/09 21:07:12;;;;;;;24.93;17.13;;;7.70;99.90;;;;;;5013692;28;20460;-55
2024/03/09 21:09:38;;;;;;;22.47;15.90;;;7.70;99.90;;;;;;5014265;28;20810;-56
2024/03/09 21:12:04;;;;;;;26.77;15.80;;;7.70;99.90;;;;;;5014168;28;20515;-55
2024/03/09 21:14:30;;;;;;;20.50;17.03;;;7.60;99.90;;;;;;5014003;28;20187;-58
2024/03/09 21:16:56;;;;;;;25.10;16.70;;;7.60;99.90;;;;;;5014082;28;20759;-57
2024/03/09 21:19:22;;;;;;;21.97;17.60;;;7.60;99.90;;;;;;5014370;28;20238;-55
2024/03/09 21:21:48;;;;;;;22.67;15.27;;;7.60;99.90;;;;;;5014028;28;20452;-56
2024/03/09 21:24:14;;;;;;;24.13;16.90;;;7.60;99.90;;;;;;5013861;28;20458;-53
2024/03/09 21:26:44;;;;;;;24.90;15.90;;;7.60;99.90;;;;;;5014266;28;20465;-53
2024/03/09 21:29:10;;;;;;;21.57;15.83;;;7.50;99.90;;;;;;5013935;28;20434;-53
2024/03/09 21:31:36;;;;;;;23.17;15.90;;;7.50;99.90;;;;;;5014106;28;20832;-55
2024/03/09 21:34:05;;;;;;;21.07;15.13;;;7.50;99.90;;;;;;5013489;28;20176;-58
2024/03/09 21:36:31;;;;;;;21.57;15.00;;;7.50;99.90;;;;;;5007259;28;20425;-58
2024/03/09 21:38:58;;;;;;;20.70;15.43;;;7.50;99.90;;;;;;5013881;28;20469;-56
2024/03/09 21:41:23;;;;;;;18.60;14.63;;;7.50;99.90;;;;;;5005719;28;20426;-56
2024/03/09 21:43:49;;;;;;;22.10;16.30;;;7.50;99.90;;;;;;5013948;28;20432;-57
2024/03/09 21:46:17;;;;;;;22.00;15.93;;;7.40;99.90;;;;;;5013316;28;20201;-54
2024/03/09 21:48:44;;;;;;;21.50;15.87;;;7.40;99.90;;;;;;5013637;28;20455;-54
2024/03/09 21:51:10;;;;;;;19.17;15.73;;;7.30;99.90;;;;;;5013233;28;20439;-52
2024/03/09 21:53:39;;;;;;;19.10;14.77;;;7.30;99.90;;;;;;5013870;28;20429;-55
2024/03/09 21:56:05;;;;;;;23.13;16.70;;;7.30;99.90;;;;;;5013470;28;20434;-53
2024/03/09 21:58:35;;;;;;;21.97;15.70;;;7.30;99.90;;;;;;5013215;28;20974;-51
2024/03/09 22:01:04;;;;;;;23.07;16.40;;;7.30;99.90;;;;;;5013000;28;20801;-55
2024/03/09 22:03:31;;;;;;;26.23;15.63;;;7.30;99.90;;;;;;5013619;28;20511;-55
2024/03/09 22:05:58;;;;;;;20.87;15.50;;;7.30;99.90;;;;;;5013357;28;20454;-57
2024/03/09 22:08:24;;;;;;;22.53;16.43;;;7.20;99.90;;;;;;5013309;28;20483;-53
2024/03/09 22:10:51;;;;;;;19.87;15.50;;;7.20;99.90;;;;;;5013013;28;20512;-51
2024/03/09 22:13:18;;;;;;;19.70;15.13;;;7.20;99.90;;;;;;5012905;28;20419;-55
2024/03/09 22:15:44;;;;;;;28.43;15.63;;;7.20;99.90;;;;;;5012419;28;20486;-56
2024/03/09 22:18:09;;;;;;;23.67;16.50;;;7.20;99.90;;;;;;5011276;28;20507;-56
2024/03/09 22:20:35;;;;;;;20.23;15.20;;;7.20;99.90;;;;;;5012281;28;20562;-53
2024/03/09 22:23:01;;;;;;;23.00;15.50;;;7.20;99.90;;;;;;5012639;28;20553;-58
2024/03/09 22:25:26;;;;;;;20.57;15.20;;;7.20;99.90;;;;;;5013170;28;20192;-55
2024/03/09 22:27:52;;;;;;;21.27;14.60;;;7.10;99.90;;;;;;5012832;28;20291;-54
2024/03/09 22:30:18;;;;;;;22.70;15.97;;;7.10;99.90;;;;;;5012305;28;20294;-56
2024/03/09 22:32:44;;;;;;;25.77;17.00;;;7.10;99.90;;;;;;5012531;28;20317;-54
2024/03/09 22:35:15;;;;;;;26.67;15.80;;;7.10;99.90;;;;;;5012837;28;20897;-56
2024/03/09 22:37:42;;;;;;;24.87;15.80;;;7.00;99.90;;;;;;5012939;28;20438;-57
2024/03/09 22:40:10;;;;;;;23.57;14.83;;;7.00;99.90;;;;;;5012359;28;20458;-52
2024/03/09 22:42:39;;;;;;;22.93;15.90;;;7.00;99.90;;;;;;5012418;28;20882;-56
2024/03/09 22:45:11;;;;;;;20.87;16.87;;;7.10;99.90;;;;;;5011936;28;20424;-57
2024/03/09 22:47:43;;;;;;;24.40;16.80;;;7.00;99.90;;;;;;5012294;28;20515;-54
2024/03/09 22:50:13;;;;;;;27.10;16.27;;;7.00;99.90;;;;;;5010039;28;20456;-51
2024/03/09 22:52:40;;;;;;;24.83;16.50;;;6.90;99.90;;;;;;5025707;22;21013;-60
2024/03/09 22:55:07;;;;;;;23.73;15.73;;;6.90;99.90;;;;;;5011444;28;20419;-57
2024/03/09 22:57:33;;;;;;;22.67;16.10;;;6.90;99.90;;;;;;5011450;28;20419;-63
2024/03/09 22:59:58;;;;;;;21.20;14.50;;;6.90;99.90;;;;;;5011757;28;20486;-62
2024/03/09 23:02:24;;;;;;;23.03;14.90;;;6.90;99.90;;;;;;5011262;28;20627;-63
2024/03/09 23:04:50;;;;;;;24.50;15.80;;;6.90;99.90;;;;;;5011571;28;20225;-62
2024/03/09 23:07:17;;;;;;;25.93;16.07;;;6.90;99.90;;;;;;5011471;28;20307;-61
2024/03/09 23:09:45;;;;;;;23.60;15.53;;;6.80;99.90;;;;;;5011458;28;20432;-61
2024/03/09 23:12:10;;;;;;;23.43;16.00;;;6.80;99.90;;;;;;5011034;28;20534;-60
2024/03/09 23:14:37;;;;;;;25.83;15.43;;;6.80;99.90;;;;;;5011253;28;20519;-63
2024/03/09 23:17:04;;;;;;;26.37;16.60;;;6.80;99.90;;;;;;5011588;28;20215;-59
2024/03/09 23:19:30;;;;;;;22.70;15.60;;;6.80;99.90;;;;;;5011591;28;20516;-63
2024/03/09 23:22:00;;;;;;;22.97;15.87;;;6.80;99.90;;;;;;5011358;28;20528;-62
2024/03/09 23:24:27;;;;;;;18.30;14.03;;;6.80;99.90;;;;;;5011131;28;20425;-65
2024/03/09 23:26:56;;;;;;;22.70;16.90;;;6.80;99.90;;;;;;5010711;28;20487;-61
2024/03/09 23:29:27;;;;;;;24.33;16.37;;;6.70;99.90;;;;;;5011416;28;20926;-63
2024/03/09 23:31:53;;;;;;;24.33;16.40;;;6.70;99.90;;;;;;5010710;28;20444;-63
2024/03/09 23:34:22;;;;;;;23.77;14.20;;;6.70;99.90;;;;;;5010856;28;20527;-62
2024/03/09 23:36:52;;;;;;;21.13;14.67;;;6.70;99.90;;;;;;5011089;28;20427;-62
2024/03/09 23:39:18;;;;;;;20.73;15.73;;;6.70;99.90;;;;;;5011151;28;20428;-60
2024/03/09 23:41:44;;;;;;;25.60;15.33;;;6.70;99.90;;;;;;5010775;28;20561;-62
2024/03/09 23:44:13;;;;;;;21.03;15.57;;;6.70;99.90;;;;;;5010764;28;20435;-62
2024/03/09 23:46:39;;;;;;;23.20;15.63;;;6.70;99.90;;;;;;5010638;28;20295;-63
2024/03/09 23:49:07;;;;;;;19.80;13.83;;;6.60;99.90;;;;;;5010940;28;20519;-66
2024/03/09 23:51:33;;;;;;;25.67;14.80;;;6.60;99.90;;;;;;5010788;28;20456;-61
2024/03/09 23:53:59;;;;;;;22.93;14.90;;;6.60;99.90;;;;;;5010712;28;20925;-63
2024/03/09 23:56:28;;;;;;;20.00;14.20;;;6.60;99.90;;;;;;5010723;28;20435;-62
2024/03/09 23:58:54;;;;;;;23.83;14.67;;;6.50;99.90;;;;;;5011108;28;20434;-61
